Time;durP1;ratioP1;P1;durP2;ratioP2;P2;SDS_P1;SDS_P2;PMS_P1;PMS_P2;Temp;Humidity;BMP_temperature;BMP_pressure;BME280_temperature;BME280_humidity;BME280_pressure;Samples;Min_cycle;Max_cycle;Signal;HPM_P1;HPM_P2
2022/07/26 00:00:18;;;;;;;19.90;12.95;;;28.30;99.90;;;;;;1894000;73;21235;-80
2022/07/26 00:02:49;;;;;;;18.52;11.03;;;28.40;99.90;;;;;;1850315;75;21179;-80
2022/07/26 00:05:21;;;;;;;15.30;11.35;;;28.40;99.90;;;;;;1818531;77;21266;-80
2022/07/26 00:08:09;;;;;;;15.05;11.18;;;28.50;99.90;;;;;;1841162;76;21268;-80
2022/07/26 00:10:24;;;;;;;17.75;12.20;;;28.60;99.90;;;;;;1871066;75;21068;-79
2022/07/26 00:12:54;;;;;;;15.98;10.58;;;28.60;99.90;;;;;;1866644;75;21172;-79
2022/07/26 00:15:26;;;;;;;17.02;9.78;;;28.60;99.90;;;;;;1856079;75;21698;-79
2022/07/26 00:17:56;;;;;;;12.85;8.58;;;28.70;99.90;;;;;;1898795;73;21213;-80
2022/07/26 00:20:27;;;;;;;14.30;9.48;;;28.70;99.90;;;;;;1915919;73;21475;-80
2022/07/26 00:23:00;;;;;;;15.03;8.50;;;28.70;99.90;;;;;;1862243;75;21198;-80
2022/07/26 00:25:31;;;;;;;11.15;8.40;;;28.70;99.90;;;;;;1819701;77;21177;-80
2022/07/26 00:28:02;;;;;;;11.68;7.20;;;28.70;99.90;;;;;;1853913;75;21223;-80
2022/07/26 00:30:33;;;;;;;8.60;6.45;;;28.70;99.90;;;;;;1889121;73;21135;-80
2022/07/26 00:33:04;;;;;;;9.53;5.67;;;28.70;99.90;;;;;;1898019;74;21209;-80
2022/07/26 00:35:35;;;;;;;7.95;5.83;;;28.70;99.90;;;;;;1882715;74;21255;-80
2022/07/26 00:38:06;;;;;;;10.30;6.10;;;28.80;99.90;;;;;;1860343;75;21579;-80
2022/07/26 00:40:37;;;;;;;8.95;5.33;;;28.80;99.90;;;;;;1897830;73;21226;-79
2022/07/26 00:43:08;;;;;;;9.23;6.08;;;28.80;99.90;;;;;;1905685;73;21193;-80
2022/07/26 00:45:40;;;;;;;7.90;5.80;;;28.90;99.90;;;;;;1905913;73;21159;-81
2022/07/26 00:48:12;;;;;;;11.18;5.92;;;28.90;99.90;;;;;;1888018;73;21206;-81
2022/07/26 00:50:44;;;;;;;9.68;5.72;;;28.90;99.90;;;;;;1911921;73;21119;-79
2022/07/26 00:53:19;;;;;;;10.25;5.15;;;28.90;99.90;;;;;;1888795;73;21106;-80
2022/07/26 00:55:51;;;;;;;9.50;5.30;;;29.00;99.90;;;;;;1904360;74;21093;-80
2022/07/26 00:58:22;;;;;;;11.63;5.78;;;29.10;99.90;;;;;;1889753;74;21143;-80
2022/07/26 01:00:53;;;;;;;10.68;6.10;;;29.10;99.90;;;;;;1901290;74;21216;-80
2022/07/26 01:03:24;;;;;;;11.78;6.12;;;29.20;99.90;;;;;;1847457;76;21142;-78
2022/07/26 01:05:56;;;;;;;8.83;5.33;;;29.20;99.90;;;;;;1843666;76;21219;-79
2022/07/26 01:08:28;;;;;;;8.60;5.17;;;29.30;99.90;;;;;;1838560;76;21688;-79
2022/07/26 01:10:59;;;;;;;11.55;5.97;;;29.40;99.90;;;;;;1827696;77;21162;-79
2022/07/26 01:13:31;;;;;;;7.62;4.97;;;29.50;99.90;;;;;;1829339;76;21187;-80
2022/07/26 01:16:03;;;;;;;10.43;4.95;;;29.40;99.90;;;;;;1815926;77;21092;-79
2022/07/26 01:18:34;;;;;;;9.25;4.35;;;29.60;99.90;;;;;;1914916;73;21206;-79
2022/07/26 01:21:09;;;;;;;7.28;5.17;;;29.60;99.90;;;;;;1907511;73;21221;-79
2022/07/26 01:23:42;;;;;;;7.65;4.80;;;29.60;99.90;;;;;;1886336;74;21205;-79
2022/07/26 01:26:13;;;;;;;9.35;4.85;;;29.70;99.90;;;;;;1849091;76;21256;-78
2022/07/26 01:28:48;;;;;;;6.80;4.42;;;29.80;99.90;;;;;;1831347;77;21237;-79
2022/07/26 01:31:17;;;;;;;10.90;4.92;;;29.90;99.90;;;;;;1884567;73;21560;-77
2022/07/26 01:33:49;;;;;;;6.20;4.50;;;29.90;99.90;;;;;;1896159;74;21156;-70
2022/07/26 01:36:20;;;;;;;7.33;4.78;;;30.00;99.90;;;;;;1864550;75;21164;-70
2022/07/26 01:38:51;;;;;;;7.33;4.50;;;30.10;99.90;;;;;;1842743;76;21644;-68
2022/07/26 01:41:22;;;;;;;8.48;5.25;;;30.10;99.90;;;;;;1830110;77;21179;-71
2022/07/26 01:43:55;;;;;;;11.70;4.97;;;30.20;99.50;;;;;;1848720;75;21617;-70
2022/07/26 01:46:26;;;;;;;11.80;4.80;;;30.30;99.90;;;;;;1860467;75;21660;-69
2022/07/26 01:48:57;;;;;;;10.75;4.50;;;30.40;99.50;;;;;;1827499;76;21806;-71
2022/07/26 01:51:29;;;;;;;8.25;4.12;;;30.50;99.30;;;;;;1890949;73;21576;-70
2022/07/26 01:54:00;;;;;;;6.45;4.28;;;30.60;98.70;;;;;;1895639;73;22023;-69
2022/07/26 01:56:31;;;;;;;9.20;4.50;;;30.60;98.70;;;;;;1896847;74;21191;-70
2022/07/26 01:59:03;;;;;;;5.00;3.90;;;30.70;98.60;;;;;;1892288;73;21145;-70
2022/07/26 02:01:34;;;;;;;6.03;3.67;;;30.80;98.10;;;;;;1878620;74;21079;-70
2022/07/26 02:04:06;;;;;;;5.33;3.37;;;30.90;97.50;;;;;;1895199;74;21151;-71
2022/07/26 02:06:38;;;;;;;5.90;3.58;;;31.00;97.40;;;;;;1894114;73;21191;-69
2022/07/26 02:09:09;;;;;;;4.97;3.45;;;31.10;97.20;;;;;;1861325;75;21210;-69
2022/07/26 02:11:41;;;;;;;6.33;3.50;;;31.20;96.30;;;;;;1863394;75;21151;-69
2022/07/26 02:14:12;;;;;;;6.47;3.60;;;31.30;96.50;;;;;;1897265;74;21611;-71
2022/07/26 02:16:44;;;;;;;5.25;3.17;;;31.30;96.60;;;;;;1835750;76;21147;-72
2022/07/26 02:19:15;;;;;;;5.40;3.25;;;31.40;95.80;;;;;;1842780;76;21215;-70
2022/07/26 02:21:46;;;;;;;6.97;3.60;;;31.50;95.90;;;;;;1864880;75;21159;-71
2022/07/26 02:24:17;;;;;;;4.55;3.22;;;31.60;95.90;;;;;;1902960;74;21152;-70
2022/07/26 02:26:48;;;;;;;6.72;3.27;;;31.80;96.10;;;;;;1893241;74;21702;-70
2022/07/26 02:29:19;;;;;;;5.67;3.10;;;31.90;95.90;;;;;;1896002;74;21155;-70
2022/07/26 02:31:50;;;;;;;7.30;3.60;;;32.00;95.70;;;;;;1892632;74;21230;-70
2022/07/26 02:34:22;;;;;;;6.00;3.55;;;32.10;94.40;;;;;;1899975;73;21712;-71
2022/07/26 02:36:53;;;;;;;7.35;3.02;;;32.10;94.40;;;;;;1872761;75;21906;-71
2022/07/26 02:39:27;;;;;;;3.58;2.60;;;32.20;94.60;;;;;;1881491;75;21639;-69
2022/07/26 02:41:58;;;;;;;6.35;2.70;;;32.30;93.60;;;;;;1857835;75;21769;-71
2022/07/26 02:44:33;;;;;;;5.65;2.80;;;32.40;94.00;;;;;;1855642;75;21175;-70
2022/07/26 02:47:12;;;;;;;5.62;3.08;;;32.40;94.10;;;;;;1896349;74;21135;-71
2022/07/26 02:49:43;;;;;;;7.28;2.92;;;32.50;93.30;;;;;;1911903;73;21097;-70
2022/07/26 02:52:19;;;;;;;4.58;2.85;;;32.60;93.30;;;;;;1898038;73;22027;-70
2022/07/26 02:54:50;;;;;;;7.22;2.98;;;32.70;92.20;;;;;;1902351;73;21139;-70
2022/07/26 02:57:22;;;;;;;4.80;2.50;;;32.80;92.20;;;;;;1838874;77;21286;-71
2022/07/26 02:59:52;;;;;;;5.33;2.67;;;32.80;92.00;;;;;;1906146;73;21666;-70
2022/07/26 03:02:23;;;;;;;5.08;2.67;;;32.80;91.40;;;;;;1870517;75;21084;-70
2022/07/26 03:04:54;;;;;;;5.83;2.95;;;32.90;92.00;;;;;;1824666;76;21181;-70
2022/07/26 03:07:29;;;;;;;5.10;2.85;;;32.90;91.60;;;;;;1823542;76;21316;-69
2022/07/26 03:10:00;;;;;;;6.00;2.87;;;32.90;92.00;;;;;;1833081;76;21480;-69
2022/07/26 03:12:32;;;;;;;4.65;2.55;;;33.00;91.50;;;;;;1880871;73;21124;-71
2022/07/26 03:15:07;;;;;;;4.47;2.65;;;33.00;91.40;;;;;;1865371;75;21131;-70
2022/07/26 03:17:44;;;;;;;5.12;2.50;;;33.10;90.80;;;;;;1906010;73;21086;-70
2022/07/26 03:20:14;;;;;;;4.35;2.33;;;33.00;91.50;;;;;;1907472;74;21056;-71
2022/07/26 03:22:53;;;;;;;3.62;2.70;;;32.90;91.40;;;;;;1883890;74;21209;-71
2022/07/26 03:25:25;;;;;;;4.58;2.45;;;32.80;91.20;;;;;;1859440;75;21526;-72
2022/07/26 03:27:56;;;;;;;5.53;2.75;;;32.80;91.50;;;;;;1811814;77;21184;-71
2022/07/26 03:30:27;;;;;;;4.55;2.70;;;32.90;91.90;;;;;;1869527;75;21729;-71
2022/07/26 03:33:06;;;;;;;8.00;3.00;;;32.90;91.80;;;;;;1874578;75;21124;-70
2022/07/26 03:35:39;;;;;;;6.30;2.75;;;32.90;91.40;;;;;;1905372;73;21160;-71
2022/07/26 03:38:11;;;;;;;4.55;2.80;;;32.90;91.30;;;;;;1867366;75;21499;-70
2022/07/26 03:40:43;;;;;;;4.33;2.67;;;32.80;91.20;;;;;;1818971;75;21672;-70
2022/07/26 03:43:21;;;;;;;5.97;2.35;;;32.70;91.50;;;;;;1860043;75;21210;-70
2022/07/26 03:45:51;;;;;;;8.15;2.47;;;32.70;91.20;;;;;;1895169;73;21163;-70
2022/07/26 03:48:23;;;;;;;4.28;2.30;;;32.60;91.60;;;;;;1858929;75;21577;-70
2022/07/26 03:51:03;;;;;;;7.87;3.10;;;32.40;91.70;;;;;;1829528;76;21729;-70
2022/07/26 03:53:35;;;;;;;5.78;3.50;;;32.40;91.90;;;;;;1904038;73;21168;-73
2022/07/26 03:58:40;;;;;;;4.55;2.92;;;32.40;92.10;;;;;;1905090;74;21669;-72
2022/07/26 04:01:14;;;;;;;4.87;2.87;;;32.40;91.80;;;;;;1865777;75;21187;-71
2022/07/26 04:03:53;;;;;;;2.98;2.22;;;32.40;92.00;;;;;;1894649;73;21123;-73
2022/07/26 04:06:31;;;;;;;4.70;2.70;;;32.40;91.50;;;;;;1886812;74;21536;-74
2022/07/26 04:09:04;;;;;;;3.52;2.60;;;32.30;91.80;;;;;;1903931;73;21089;-70
2022/07/26 04:11:39;;;;;;;4.80;2.22;;;32.40;91.30;;;;;;1880863;75;21844;-70
2022/07/26 04:14:10;;;;;;;4.80;2.50;;;32.60;90.80;;;;;;1869812;75;21722;-70
2022/07/26 04:16:42;;;;;;;4.00;2.62;;;32.70;90.40;;;;;;1845345;76;21700;-70
2022/07/26 04:19:13;;;;;;;4.95;2.60;;;32.90;90.80;;;;;;1899539;73;21682;-69
2022/07/26 04:21:44;;;;;;;4.42;3.15;;;33.10;90.50;;;;;;1901233;74;21906;-70
2022/07/26 04:24:15;;;;;;;4.50;3.00;;;33.30;90.10;;;;;;1906889;74;21183;-70
2022/07/26 04:26:46;;;;;;;3.75;2.70;;;33.50;89.10;;;;;;1901425;73;21168;-71
2022/07/26 04:29:17;;;;;;;4.92;2.55;;;33.70;88.90;;;;;;1904186;73;21580;-70
2022/07/26 04:31:48;;;;;;;5.47;2.65;;;33.80;87.80;;;;;;1909014;73;21701;-69
2022/07/26 04:34:19;;;;;;;5.75;2.72;;;33.80;87.50;;;;;;1904714;74;21200;-72
2022/07/26 04:36:52;;;;;;;4.05;2.08;;;33.70;87.70;;;;;;1885077;75;21262;-70
2022/07/26 04:39:24;;;;;;;3.47;2.17;;;33.60;89.50;;;;;;1903699;73;21184;-72
2022/07/26 04:41:55;;;;;;;6.05;3.00;;;33.50;90.30;;;;;;1892932;74;21128;-72
2022/07/26 04:44:26;;;;;;;4.58;3.47;;;33.40;89.30;;;;;;1873292;74;21107;-70
2022/07/26 04:46:57;;;;;;;8.70;3.00;;;33.20;90.00;;;;;;1888477;73;21187;-72
2022/07/26 04:49:29;;;;;;;6.75;5.25;;;33.10;88.80;;;;;;1835490;76;21605;-72
2022/07/26 04:52:02;;;;;;;9.20;4.08;;;33.00;90.10;;;;;;1851472;76;21229;-71
2022/07/26 04:54:37;;;;;;;5.53;2.95;;;32.90;89.40;;;;;;1911167;74;21707;-70
2022/07/26 04:57:08;;;;;;;7.58;2.80;;;32.80;88.70;;;;;;1864170;74;21774;-71
2022/07/26 04:59:41;;;;;;;7.37;3.90;;;32.90;89.10;;;;;;1892217;74;21096;-71
2022/07/26 05:02:13;;;;;;;6.87;3.20;;;33.00;89.70;;;;;;1906559;73;21652;-70
2022/07/26 05:04:47;;;;;;;5.15;3.20;;;33.20;89.40;;;;;;1889905;73;21755;-71
2022/07/26 05:07:19;;;;;;;8.30;4.90;;;33.40;88.70;;;;;;1896845;73;21246;-70
2022/07/26 05:09:50;;;;;;;8.05;6.03;;;33.50;88.40;;;;;;1869184;75;21533;-71
2022/07/26 05:12:29;;;;;;;7.37;4.00;;;33.70;87.80;;;;;;1903915;74;22336;-71
2022/07/26 05:14:57;;;;;;;4.80;2.80;;;33.90;88.00;;;;;;1899276;73;21214;-70
2022/07/26 05:17:31;;;;;;;5.08;2.80;;;34.10;85.50;;;;;;1898704;74;21213;-70
2022/07/26 05:20:03;;;;;;;6.35;2.90;;;34.30;84.90;;;;;;1872471;74;21197;-71
2022/07/26 05:22:35;;;;;;;4.70;3.20;;;34.30;84.50;;;;;;1892728;74;22158;-70
2022/07/26 05:25:09;;;;;;;5.30;3.20;;;34.30;85.10;;;;;;1904053;73;21071;-72
2022/07/26 05:27:40;;;;;;;4.67;3.00;;;34.30;85.20;;;;;;1899866;74;21302;-72
2022/07/26 05:30:11;;;;;;;5.80;3.55;;;34.40;83.80;;;;;;1895948;74;21639;-70
2022/07/26 05:32:42;;;;;;;3.98;2.77;;;34.50;84.10;;;;;;1915220;74;21614;-70
2022/07/26 05:35:13;;;;;;;4.05;2.83;;;34.60;82.10;;;;;;1900604;74;21160;-70
2022/07/26 05:37:45;;;;;;;4.17;2.75;;;34.60;82.20;;;;;;1897929;74;21085;-70
2022/07/26 05:40:16;;;;;;;4.97;2.58;;;34.70;83.90;;;;;;1894458;73;21238;-71
2022/07/26 05:42:47;;;;;;;5.58;2.95;;;34.70;83.20;;;;;;1903079;73;21716;-71
2022/07/26 05:45:18;;;;;;;4.03;2.55;;;34.70;82.40;;;;;;1900472;73;21604;-69
2022/07/26 05:47:50;;;;;;;5.47;2.70;;;34.70;83.60;;;;;;1898725;73;21240;-71
2022/07/26 05:50:21;;;;;;;3.98;2.72;;;34.80;81.70;;;;;;1908693;73;21223;-70
2022/07/26 05:52:53;;;;;;;6.20;3.00;;;34.80;82.60;;;;;;1906115;73;21185;-71
2022/07/26 05:55:24;;;;;;;4.58;2.60;;;34.80;82.00;;;;;;1872644;75;21261;-70
2022/07/26 05:57:54;;;;;;;5.58;3.75;;;34.80;80.60;;;;;;1879278;75;21120;-70
2022/07/26 06:00:25;;;;;;;5.00;2.80;;;34.80;80.90;;;;;;1890285;74;21160;-71
2022/07/26 06:02:56;;;;;;;5.00;3.70;;;34.70;80.50;;;;;;1910053;73;21159;-70
2022/07/26 06:05:27;;;;;;;4.33;3.12;;;34.60;81.80;;;;;;1878718;74;21182;-71
2022/07/26 06:07:58;;;;;;;6.00;3.30;;;34.50;82.00;;;;;;1846932;75;21579;-71
2022/07/26 06:10:29;;;;;;;5.30;2.65;;;34.50;81.60;;;;;;1842268;76;22314;-71
2022/07/26 06:13:00;;;;;;;4.97;2.95;;;34.50;81.10;;;;;;1844748;75;21657;-70
2022/07/26 06:15:31;;;;;;;5.72;3.17;;;34.60;80.60;;;;;;1851724;77;21646;-70
2022/07/26 06:18:02;;;;;;;5.70;3.20;;;34.60;80.90;;;;;;1899976;74;21566;-70
2022/07/26 06:20:38;;;;;;;4.55;3.35;;;34.50;81.40;;;;;;1906507;74;21576;-70
2022/07/26 06:23:10;;;;;;;7.10;2.75;;;34.40;81.40;;;;;;1893922;73;21060;-71
2022/07/26 06:25:42;;;;;;;6.60;3.00;;;34.30;82.90;;;;;;1892028;74;21115;-72
2022/07/26 06:28:13;;;;;;;5.58;3.22;;;34.30;83.40;;;;;;1859356;75;21124;-73
2022/07/26 06:30:45;;;;;;;6.78;3.33;;;34.10;83.20;;;;;;1830554;76;21197;-71
2022/07/26 06:33:16;;;;;;;4.85;2.60;;;34.10;83.50;;;;;;1850947;76;22309;-71
2022/07/26 06:35:47;;;;;;;5.15;2.70;;;34.00;83.70;;;;;;1892835;73;21182;-71
2022/07/26 06:38:18;;;;;;;6.25;3.27;;;33.90;83.90;;;;;;1883060;73;21552;-71
2022/07/26 06:40:49;;;;;;;6.55;3.25;;;33.90;84.50;;;;;;1883260;73;21142;-71
2022/07/26 06:43:20;;;;;;;4.20;3.37;;;33.80;84.90;;;;;;1898407;73;21065;-72
2022/07/26 06:45:52;;;;;;;6.30;3.58;;;33.80;84.40;;;;;;1884860;74;21143;-73
2022/07/26 06:48:23;;;;;;;6.00;3.80;;;33.80;85.20;;;;;;1884302;73;21190;-70
2022/07/26 06:50:54;;;;;;;8.60;5.47;;;33.80;85.50;;;;;;1876891;73;21201;-71
2022/07/26 06:53:25;;;;;;;13.32;4.40;;;33.80;83.60;;;;;;1891421;74;21555;-71
2022/07/26 06:55:56;;;;;;;5.70;3.85;;;33.70;83.60;;;;;;1895262;73;21134;-72
2022/07/26 06:58:26;;;;;;;4.67;3.17;;;33.80;84.00;;;;;;1907958;74;21745;-71
2022/07/26 07:01:04;;;;;;;5.33;2.80;;;33.80;85.40;;;;;;1890141;73;21141;-72
2022/07/26 07:03:36;;;;;;;6.78;3.60;;;33.80;83.40;;;;;;1908967;73;21693;-72
2022/07/26 07:06:07;;;;;;;4.80;3.05;;;33.90;83.90;;;;;;1893829;73;21135;-71
2022/07/26 07:08:38;;;;;;;5.47;2.98;;;34.00;83.80;;;;;;1893331;73;21210;-71
2022/07/26 07:11:10;;;;;;;5.67;2.80;;;34.00;83.70;;;;;;1866427;74;21611;-72
2022/07/26 07:13:42;;;;;;;6.80;3.17;;;34.00;82.60;;;;;;1886554;73;21216;-71
2022/07/26 07:16:12;;;;;;;4.47;3.12;;;34.00;83.20;;;;;;1882075;74;21584;-73
2022/07/26 07:18:48;;;;;;;6.03;3.10;;;34.00;83.20;;;;;;1876497;74;21171;-73
2022/07/26 07:21:18;;;;;;;5.80;3.27;;;34.00;83.90;;;;;;1886177;74;21615;-71
2022/07/26 07:23:49;;;;;;;8.85;4.95;;;34.00;84.50;;;;;;1891823;73;21153;-70
2022/07/26 07:26:20;;;;;;;7.47;4.50;;;34.00;85.20;;;;;;1901938;74;21234;-71
2022/07/26 07:28:52;;;;;;;5.72;3.50;;;33.90;85.30;;;;;;1911873;73;21159;-71
2022/07/26 07:31:25;;;;;;;6.47;3.35;;;33.80;84.50;;;;;;1919147;73;21154;-71
2022/07/26 07:33:58;;;;;;;5.08;3.42;;;33.80;85.10;;;;;;1904926;73;21240;-70
2022/07/26 07:36:30;;;;;;;5.12;3.27;;;33.70;85.10;;;;;;1906736;73;21665;-70
2022/07/26 07:39:01;;;;;;;4.60;2.90;;;33.60;85.40;;;;;;1926139;73;21155;-70
2022/07/26 07:41:35;;;;;;;7.08;3.42;;;33.60;85.50;;;;;;1911604;73;21229;-72
2022/07/26 07:44:06;;;;;;;8.58;3.92;;;33.60;85.80;;;;;;1879968;74;21192;-71
2022/07/26 07:46:38;;;;;;;8.43;3.33;;;33.60;85.20;;;;;;1902905;73;21766;-71
2022/07/26 07:49:09;;;;;;;6.10;2.85;;;33.60;85.40;;;;;;1887059;74;21429;-71
2022/07/26 07:51:41;;;;;;;6.17;3.08;;;33.60;85.20;;;;;;1912674;73;21132;-70
2022/07/26 07:54:14;;;;;;;7.12;3.40;;;33.70;84.80;;;;;;1874363;74;21126;-72
2022/07/26 07:56:46;;;;;;;5.37;3.40;;;33.70;84.90;;;;;;1919967;73;21099;-70
2022/07/26 07:59:19;;;;;;;4.10;2.90;;;33.70;84.50;;;;;;1897351;73;21577;-70
2022/07/26 08:01:51;;;;;;;4.53;3.20;;;33.70;84.40;;;;;;1895948;74;21564;-71
2022/07/26 08:04:41;;;;;;;6.75;3.00;;;33.80;83.70;;;;;;1877752;73;21208;-71
2022/07/26 08:07:13;;;;;;;6.72;2.95;;;33.90;82.80;;;;;;1898627;73;21146;-71
2022/07/26 08:10:03;;;;;;;4.58;2.85;;;34.00;81.90;;;;;;1885331;74;21225;-71
2022/07/26 08:12:52;;;;;;;3.92;2.58;;;34.20;80.50;;;;;;1876090;73;21207;-71
2022/07/26 08:15:52;;;;;;;4.03;2.85;;;34.30;79.30;;;;;;1851450;74;21182;-72
2022/07/26 08:18:42;;;;;;;4.33;2.62;;;34.40;80.60;;;;;;1884007;73;21060;-70
2022/07/26 08:21:49;;;;;;;11.40;2.67;;;34.50;78.50;;;;;;1875000;74;21196;-72
2022/07/26 08:24:21;;;;;;;12.95;2.98;;;34.60;81.50;;;;;;1889156;73;21578;-70
2022/07/26 08:26:52;;;;;;;10.95;2.30;;;34.50;83.00;;;;;;1891706;73;21615;-71
2022/07/26 08:29:24;;;;;;;12.47;2.92;;;34.10;84.10;;;;;;1877805;74;21095;-71
2022/07/26 08:31:55;;;;;;;8.18;1.92;;;33.80;84.00;;;;;;1897335;73;21600;-71
2022/07/26 08:34:26;;;;;;;5.22;1.90;;;33.40;85.90;;;;;;1904202;74;21171;-72
2022/07/26 08:36:57;;;;;;;8.10;1.77;;;33.20;87.60;;;;;;1882391;74;21100;-70
2022/07/26 08:39:30;;;;;;;7.28;1.80;;;32.80;88.50;;;;;;1906309;73;21584;-70
2022/07/26 08:42:03;;;;;;;8.13;2.00;;;32.50;89.70;;;;;;1879406;74;21579;-70
2022/07/26 08:44:35;;;;;;;6.95;1.87;;;32.20;90.10;;;;;;1910963;74;21657;-72
2022/07/26 08:47:06;;;;;;;6.33;1.80;;;31.90;90.60;;;;;;1884224;74;21629;-71
2022/07/26 08:49:37;;;;;;;5.47;1.70;;;31.70;91.10;;;;;;1883068;74;21218;-71
2022/07/26 08:52:10;;;;;;;4.95;1.57;;;31.30;91.00;;;;;;1900041;73;21212;-71
2022/07/26 08:54:43;;;;;;;4.03;1.67;;;31.10;91.30;;;;;;1892045;73;21369;-71
2022/07/26 08:57:15;;;;;;;3.72;1.60;;;30.90;91.80;;;;;;1896591;73;21140;-71
2022/07/26 08:59:48;;;;;;;10.58;2.08;;;30.70;92.00;;;;;;1895478;73;21197;-70
2022/07/26 09:02:18;;;;;;;4.17;1.35;;;30.60;92.10;;;;;;1890576;74;21146;-71
2022/07/26 09:04:50;;;;;;;2.90;1.40;;;30.50;92.20;;;;;;1882203;75;21628;-70
2022/07/26 09:07:21;;;;;;;6.00;1.70;;;30.50;92.10;;;;;;1891127;74;21595;-71
2022/07/26 09:09:54;;;;;;;4.30;1.70;;;30.50;92.30;;;;;;1882690;75;21198;-71
2022/07/26 09:12:26;;;;;;;4.62;1.60;;;30.40;92.30;;;;;;1861272;75;21136;-71
2022/07/26 09:14:59;;;;;;;4.10;1.50;;;30.40;92.50;;;;;;1870926;74;21201;-71
2022/07/26 09:17:32;;;;;;;2.50;1.50;;;30.50;92.20;;;;;;1895089;74;21148;-72
2022/07/26 09:20:04;;;;;;;2.35;1.32;;;30.40;92.10;;;;;;1894581;74;21489;-72
2022/07/26 09:22:40;;;;;;;3.08;1.40;;;30.30;91.80;;;;;;1888549;74;21294;-72
2022/07/26 09:25:13;;;;;;;2.95;1.10;;;30.30;91.90;;;;;;1898449;74;21716;-72
2022/07/26 09:27:45;;;;;;;3.37;1.10;;;30.30;91.30;;;;;;1883151;74;21621;-72
2022/07/26 09:30:16;;;;;;;4.58;1.10;;;30.20;91.10;;;;;;1892373;74;21148;-73
2022/07/26 09:32:50;;;;;;;3.67;1.15;;;30.20;91.10;;;;;;1848796;76;21164;-73
2022/07/26 09:35:22;;;;;;;3.47;1.20;;;30.30;91.00;;;;;;1878481;73;21236;-71
2022/07/26 09:37:57;;;;;;;3.72;1.25;;;30.30;90.70;;;;;;1883271;74;21143;-73
2022/07/26 09:40:30;;;;;;;3.20;1.22;;;30.30;91.40;;;;;;1886536;74;21276;-72
2022/07/26 09:43:04;;;;;;;2.67;1.60;;;30.20;90.90;;;;;;1852612;74;21768;-71
2022/07/26 09:45:37;;;;;;;4.00;1.30;;;30.30;91.00;;;;;;1874476;75;21178;-72
2022/07/26 09:48:12;;;;;;;4.22;1.77;;;30.30;90.90;;;;;;1870727;75;21261;-72
2022/07/26 09:50:48;;;;;;;4.50;1.32;;;30.30;91.00;;;;;;1855485;75;21678;-71
2022/07/26 09:53:20;;;;;;;3.35;1.37;;;30.30;90.70;;;;;;1896946;73;21615;-72
2022/07/26 09:55:49;;;;;;;4.35;1.37;;;30.20;90.80;;;;;;1877345;74;21183;-72
2022/07/26 09:58:24;;;;;;;4.10;1.02;;;30.30;90.40;;;;;;1900494;73;21773;-73
2022/07/26 10:00:55;;;;;;;2.90;1.17;;;30.30;89.80;;;;;;1889438;73;21180;-75
2022/07/26 10:03:29;;;;;;;3.05;1.17;;;30.40;89.60;;;;;;1870130;75;21091;-71
2022/07/26 10:06:01;;;;;;;6.35;1.40;;;30.40;89.50;;;;;;1868638;75;21150;-71
2022/07/26 10:08:32;;;;;;;3.47;1.20;;;30.40;89.10;;;;;;1888547;74;21191;-71
2022/07/26 10:11:06;;;;;;;3.08;1.17;;;30.40;89.30;;;;;;1889112;74;21140;-71
2022/07/26 10:13:37;;;;;;;5.12;1.62;;;30.40;89.60;;;;;;1882199;73;21197;-71
2022/07/26 10:16:11;;;;;;;3.42;1.80;;;30.30;89.90;;;;;;1903663;74;21575;-70
2022/07/26 10:18:44;;;;;;;3.35;1.30;;;30.30;89.80;;;;;;1885182;73;21127;-72
2022/07/26 10:21:16;;;;;;;2.70;1.45;;;30.30;89.40;;;;;;1909773;74;21680;-72
2022/07/26 10:23:50;;;;;;;3.67;1.62;;;30.30;89.50;;;;;;1903426;74;21516;-71
2022/07/26 10:26:23;;;;;;;4.97;1.62;;;30.20;89.90;;;;;;1883285;74;21147;-73
2022/07/26 10:28:54;;;;;;;3.92;1.40;;;30.10;89.80;;;;;;1900315;73;21612;-72
2022/07/26 10:31:29;;;;;;;4.33;1.77;;;30.10;89.40;;;;;;1826054;76;21269;-72
2022/07/26 10:34:01;;;;;;;2.83;1.47;;;30.10;89.40;;;;;;1898041;73;21147;-71
2022/07/26 10:36:35;;;;;;;2.70;1.37;;;30.00;89.00;;;;;;1909354;73;21226;-72
2022/07/26 10:39:09;;;;;;;4.40;1.80;;;29.90;89.60;;;;;;1905358;73;21512;-71
2022/07/26 10:41:43;;;;;;;3.85;1.57;;;29.90;89.70;;;;;;1895554;73;21690;-71
2022/07/26 10:44:15;;;;;;;4.92;1.50;;;29.90;89.70;;;;;;1899732;74;21257;-72
2022/07/26 10:46:48;;;;;;;4.03;1.60;;;29.90;89.80;;;;;;1898521;74;21181;-73
2022/07/26 10:49:19;;;;;;;8.85;2.20;;;29.90;90.10;;;;;;1882853;74;22375;-72
2022/07/26 10:51:53;;;;;;;4.95;2.27;;;29.90;90.40;;;;;;1901241;74;21163;-72
2022/07/26 10:54:24;;;;;;;6.55;2.27;;;29.90;90.50;;;;;;1899815;73;21152;-71
2022/07/26 10:56:54;;;;;;;4.85;2.25;;;29.80;90.60;;;;;;1900402;74;21707;-71
2022/07/26 10:59:31;;;;;;;4.17;2.05;;;29.70;90.50;;;;;;1896728;73;21162;-72
2022/07/26 11:02:04;;;;;;;4.47;2.10;;;29.70;90.40;;;;;;1901674;74;21098;-71
2022/07/26 11:04:36;;;;;;;3.33;2.08;;;29.70;90.60;;;;;;1909636;73;21208;-72
2022/07/26 11:07:07;;;;;;;4.03;2.37;;;29.60;90.90;;;;;;1904742;73;21162;-72
2022/07/26 11:09:39;;;;;;;3.80;2.65;;;29.60;90.70;;;;;;1898434;73;21657;-71
2022/07/26 11:12:12;;;;;;;5.30;2.72;;;29.60;90.80;;;;;;1876594;74;21190;-72
2022/07/26 11:14:43;;;;;;;6.10;2.72;;;29.50;91.00;;;;;;1910813;73;21084;-71
2022/07/26 11:17:18;;;;;;;4.65;2.20;;;29.50;90.90;;;;;;1901828;74;21167;-71
2022/07/26 11:19:49;;;;;;;4.62;2.40;;;29.40;91.00;;;;;;1879521;73;21107;-72
2022/07/26 11:22:20;;;;;;;8.28;3.12;;;29.40;91.10;;;;;;1896020;74;21234;-72
2022/07/26 11:24:51;;;;;;;6.95;2.77;;;29.40;91.20;;;;;;1918122;74;21176;-72
2022/07/26 11:27:22;;;;;;;5.62;2.83;;;29.30;91.30;;;;;;1915811;74;21189;-72
2022/07/26 11:29:54;;;;;;;7.45;2.80;;;29.30;91.50;;;;;;1907990;73;21303;-72
2022/07/26 11:32:26;;;;;;;4.05;2.70;;;29.30;91.40;;;;;;1880834;75;21742;-72
2022/07/26 11:34:59;;;;;;;5.55;2.80;;;29.20;91.40;;;;;;1878699;74;21556;-72
2022/07/26 11:37:30;;;;;;;5.87;2.92;;;29.20;91.50;;;;;;1890910;74;21235;-71
2022/07/26 11:40:01;;;;;;;25.50;18.52;;;29.20;91.70;;;;;;1906970;74;21178;-71
2022/07/26 11:42:32;;;;;;;12.37;8.90;;;29.10;91.80;;;;;;1888553;74;21246;-71
2022/07/26 11:45:03;;;;;;;5.50;3.90;;;29.20;91.90;;;;;;1886324;74;21111;-72
2022/07/26 11:47:34;;;;;;;124.72;103.05;;;29.10;92.00;;;;;;1889086;74;21167;-72
2022/07/26 11:50:08;;;;;;;13.43;8.73;;;29.10;92.10;;;;;;1902846;73;21127;-72
2022/07/26 11:52:40;;;;;;;70.47;52.20;;;29.10;92.10;;;;;;1906022;73;21582;-72
2022/07/26 11:55:11;;;;;;;10.45;6.30;;;29.10;92.20;;;;;;1876433;74;21528;-72
2022/07/26 11:57:43;;;;;;;15.25;7.45;;;29.10;92.30;;;;;;1888117;74;21661;-73
2022/07/26 12:00:15;;;;;;;587.55;475.90;;;29.10;92.40;;;;;;1894099;74;21599;-71
2022/07/26 12:02:46;;;;;;;662.67;470.62;;;29.00;92.40;;;;;;1891548;74;21564;-72
2022/07/26 12:05:23;;;;;;;525.08;339.72;;;29.00;92.50;;;;;;1897272;74;21538;-72
2022/07/26 12:07:57;;;;;;;282.20;186.90;;;29.00;92.60;;;;;;1882676;73;21124;-72
2022/07/26 12:10:30;;;;;;;83.62;51.70;;;29.00;92.70;;;;;;1896857;73;21124;-73
2022/07/26 12:13:05;;;;;;;628.45;412.60;;;29.00;92.80;;;;;;1892788;73;22051;-72
2022/07/26 12:15:38;;;;;;;69.67;59.77;;;29.00;92.80;;;;;;1862618;75;21608;-71
2022/07/26 12:18:13;;;;;;;47.65;28.57;;;29.00;92.80;;;;;;1830426;76;21579;-81
2022/07/26 12:20:48;;;;;;;296.43;186.95;;;29.10;93.00;;;;;;1899038;73;21261;-82
2022/07/26 12:23:23;;;;;;;126.53;96.97;;;29.10;93.00;;;;;;1888528;74;21117;-81
2022/07/26 12:25:55;;;;;;;230.47;197.28;;;29.10;93.10;;;;;;1824447;77;21284;-79
2022/07/26 12:28:31;;;;;;;84.20;73.57;;;29.20;93.00;;;;;;1900578;75;21229;-78
2022/07/26 12:31:08;;;;;;;127.50;105.45;;;29.10;92.90;;;;;;1888580;74;21583;-80
2022/07/26 12:33:43;;;;;;;253.83;225.70;;;29.10;93.10;;;;;;1875975;73;21809;-80
2022/07/26 12:36:16;;;;;;;257.20;233.02;;;29.10;93.10;;;;;;1897457;74;21579;-81
2022/07/26 12:38:54;;;;;;;326.77;268.93;;;29.10;93.10;;;;;;1894062;73;21123;-80
2022/07/26 12:41:24;;;;;;;44.88;37.45;;;29.20;93.10;;;;;;1904238;74;21193;-81
2022/07/26 12:43:59;;;;;;;93.05;82.80;;;29.20;93.00;;;;;;1878223;73;21173;-80
2022/07/26 12:46:37;;;;;;;20.75;14.93;;;29.20;93.00;;;;;;1910490;74;21620;-80
2022/07/26 12:49:08;;;;;;;202.53;182.30;;;29.30;92.90;;;;;;1879208;74;21315;-80
2022/07/26 12:51:48;;;;;;;84.72;64.67;;;29.30;92.90;;;;;;1893919;73;21203;-80
2022/07/26 12:54:18;;;;;;;12.68;8.40;;;29.30;93.30;;;;;;1881701;74;21275;-79
2022/07/26 12:56:49;;;;;;;20.50;13.43;;;29.40;93.30;;;;;;1852751;74;22114;-80
2022/07/26 12:59:20;;;;;;;30.82;23.07;;;29.40;93.30;;;;;;1826338;76;21160;-81
2022/07/26 13:01:52;;;;;;;18.67;11.65;;;29.50;93.10;;;;;;1871487;74;21127;-81
2022/07/26 13:04:23;;;;;;;16.40;12.45;;;29.60;92.50;;;;;;1902818;73;21194;-80
2022/07/26 13:06:57;;;;;;;38.65;28.35;;;29.60;92.50;;;;;;1903736;74;21195;-81
2022/07/26 13:09:28;;;;;;;6.35;4.60;;;29.60;92.50;;;;;;1890321;73;21175;-82
2022/07/26 13:12:01;;;;;;;9.95;6.12;;;29.70;92.50;;;;;;1884268;75;21194;-81